createdAt,value
2018-03-11T00:02:11.345Z,94.65
2018-03-11T00:04:39.493Z,94.65
2018-03-11T00:07:07.341Z,94.73
2018-03-11T00:09:34.994Z,94.73
2018-03-11T00:12:02.556Z,94.63
2018-03-11T00:14:30.127Z,94.56
2018-03-11T00:16:57.802Z,94.58
2018-03-11T00:19:25.386Z,94.49
2018-03-11T00:21:52.946Z,94.38
2018-03-11T00:24:20.564Z,94.28
2018-03-11T00:26:48.193Z,94.20
2018-03-11T00:29:15.788Z,94.16
2018-03-11T00:31:43.348Z,94.17
2018-03-11T00:34:10.956Z,94.11
2018-03-11T00:36:38.592Z,94.11
2018-03-11T00:39:06.188Z,94.05
2018-03-11T00:41:33.763Z,94.08
2018-03-11T00:44:01.376Z,94.09
2018-03-11T00:46:28.972Z,94.14
2018-03-11T00:48:56.548Z,94.14
2018-03-11T00:51:24.161Z,94.17
2018-03-11T00:53:51.766Z,94.29
2018-03-11T00:56:19.771Z,94.29
2018-03-11T00:58:47.369Z,94.25
2018-03-11T01:01:14.951Z,94.25
2018-03-11T01:03:42.573Z,94.21
2018-03-11T01:06:10.157Z,94.36
2018-03-11T01:08:37.721Z,94.37
2018-03-11T01:11:05.363Z,94.28
2018-03-11T01:13:32.962Z,94.13
2018-03-11T01:16:00.544Z,94.05
2018-03-11T01:18:28.131Z,94.10
2018-03-11T01:20:55.686Z,94.13
2018-03-11T01:23:23.304Z,94.18
2018-03-11T01:25:50.940Z,94.07
2018-03-11T01:28:18.613Z,93.99
2018-03-11T01:30:46.199Z,93.93
2018-03-11T01:33:13.787Z,93.85
2018-03-11T01:35:41.396Z,93.78
2018-03-11T01:38:08.958Z,93.78
2018-03-11T01:40:36.567Z,93.82
2018-03-11T01:43:04.130Z,93.85
2018-03-11T01:45:31.732Z,93.87
2018-03-11T01:47:59.374Z,93.95
2018-03-11T01:50:26.960Z,93.97
2018-03-11T01:53:06.481Z,94.10
2018-03-11T01:55:34.025Z,94.15
2018-03-11T01:58:01.595Z,94.21
2018-03-11T02:00:29.423Z,94.36
2018-03-11T02:02:57.070Z,94.32
2018-03-11T02:05:24.667Z,94.31
2018-03-11T02:07:52.272Z,94.35
2018-03-11T02:10:19.877Z,94.40
2018-03-11T02:12:47.469Z,94.41
2018-03-11T02:15:15.124Z,94.36
2018-03-11T02:17:42.771Z,94.35
2018-03-11T02:20:10.348Z,94.29
2018-03-11T02:22:37.974Z,94.25
2018-03-11T02:25:05.676Z,94.18
2018-03-11T02:27:33.257Z,94.09
2018-03-11T02:30:00.893Z,94.06
2018-03-11T02:32:28.693Z,94.01
2018-03-11T02:34:56.253Z,93.97
2018-03-11T02:37:23.881Z,93.88
2018-03-11T02:39:51.457Z,93.89
2018-03-11T02:42:19.018Z,94.11
2018-03-11T02:44:46.641Z,94.28
2018-03-11T02:47:14.216Z,94.35
2018-03-11T02:49:41.844Z,94.51
2018-03-11T02:52:09.420Z,94.72
2018-03-11T02:54:36.980Z,94.82
2018-03-11T02:57:04.625Z,94.82
2018-03-11T02:59:32.219Z,94.77
2018-03-11T03:01:59.815Z,94.72
2018-03-11T03:04:27.444Z,94.73
2018-03-11T03:06:55.083Z,94.94
2018-03-11T03:09:22.649Z,95.07
2018-03-11T03:11:50.242Z,95.16
2018-03-11T03:14:17.829Z,95.24
2018-03-11T03:16:45.442Z,95.32
2018-03-11T03:19:13.009Z,95.43
2018-03-11T03:21:40.614Z,95.43
2018-03-11T03:24:08.254Z,95.27
2018-03-11T03:26:35.846Z,95.16
2018-03-11T03:29:03.470Z,95.05
2018-03-11T03:31:31.081Z,94.97
2018-03-11T03:33:58.671Z,94.88
2018-03-11T03:36:26.325Z,94.86
2018-03-11T03:38:53.899Z,94.75
2018-03-11T03:41:21.464Z,94.68
2018-03-11T03:43:49.062Z,94.66
2018-03-11T03:46:16.639Z,94.74
2018-03-11T03:48:44.389Z,94.95
2018-03-11T03:51:12.032Z,95.21
2018-03-11T03:53:39.641Z,95.29
2018-03-11T03:56:07.270Z,95.28
2018-03-11T03:58:35.204Z,95.35
2018-03-11T04:01:03.006Z,95.48
2018-03-11T04:03:30.948Z,95.67
2018-03-11T04:05:58.529Z,95.71
2018-03-11T04:08:26.132Z,95.67
2018-03-11T04:10:54.021Z,95.64
2018-03-11T04:13:21.702Z,95.62
2018-03-11T04:15:49.740Z,95.61
2018-03-11T04:18:17.383Z,95.69
2018-03-11T04:20:45.004Z,95.90
2018-03-11T04:23:12.857Z,95.91
2018-03-11T04:25:40.420Z,95.92
2018-03-11T04:28:08.091Z,96.00
2018-03-11T04:30:35.686Z,96.06
2018-03-11T04:33:03.251Z,96.17
2018-03-11T04:35:30.882Z,96.30
2018-03-11T04:37:58.450Z,96.36
2018-03-11T04:40:26.030Z,96.29
2018-03-11T04:42:53.670Z,96.22
2018-03-11T04:45:21.266Z,96.15
2018-03-11T04:47:48.840Z,95.96
2018-03-11T04:50:16.544Z,95.79
2018-03-11T04:52:44.126Z,95.54
2018-03-11T04:55:11.975Z,95.46
2018-03-11T04:57:39.825Z,95.38
2018-03-11T05:00:07.398Z,95.18
2018-03-11T05:02:34.992Z,95.08
2018-03-11T05:05:02.623Z,95.05
2018-03-11T05:07:30.202Z,95.09
2018-03-11T05:09:57.771Z,95.15
2018-03-11T05:12:25.418Z,95.15
2018-03-11T05:14:53.033Z,95.15
2018-03-11T05:17:20.594Z,95.08
2018-03-11T05:19:48.288Z,94.97
2018-03-11T05:22:15.860Z,94.91
2018-03-11T05:24:43.430Z,94.86
2018-03-11T05:27:11.050Z,94.82
2018-03-11T05:29:38.626Z,94.75
2018-03-11T05:32:06.192Z,94.71
2018-03-11T05:34:33.843Z,94.63
2018-03-11T05:37:01.414Z,94.58
2018-03-11T05:39:28.970Z,94.53
2018-03-11T05:41:56.847Z,94.46
2018-03-11T05:44:24.563Z,94.42
2018-03-11T05:46:52.193Z,94.37
2018-03-11T05:49:19.768Z,94.40
2018-03-11T05:51:47.383Z,94.45
2018-03-11T05:54:15.205Z,94.43
2018-03-11T05:56:42.862Z,94.44
2018-03-11T05:59:10.489Z,94.40
2018-03-11T06:01:38.061Z,94.42
2018-03-11T06:04:05.702Z,94.48
2018-03-11T06:06:33.368Z,94.58
2018-03-11T06:09:00.991Z,95.14
2018-03-11T06:11:28.554Z,95.04
2018-03-11T06:13:56.205Z,95.06
2018-03-11T06:16:23.778Z,95.07
2018-03-11T06:18:51.725Z,95.28
2018-03-11T06:21:19.376Z,95.38
2018-03-11T06:23:46.990Z,95.51
2018-03-11T06:26:14.799Z,95.56
2018-03-11T06:28:42.386Z,95.67
2018-03-11T06:31:09.960Z,95.75
2018-03-11T06:33:37.571Z,95.97
2018-03-11T06:36:05.468Z,96.29
2018-03-11T06:38:33.028Z,96.52
2018-03-11T06:41:00.622Z,97.03
2018-03-11T06:43:28.187Z,96.94
2018-03-11T06:45:55.822Z,96.86
2018-03-11T06:48:23.463Z,97.01
2018-03-11T06:50:51.043Z,96.95
2018-03-11T06:53:18.678Z,96.97
2018-03-11T06:55:46.249Z,96.93
2018-03-11T06:58:13.873Z,96.91
2018-03-11T07:00:41.504Z,97.01
2018-03-11T07:03:09.079Z,97.03
2018-03-11T07:05:36.632Z,97.07
2018-03-11T07:08:04.244Z,97.02
2018-03-11T07:10:31.825Z,97.02
2018-03-11T07:12:59.392Z,97.05
2018-03-11T07:15:26.996Z,97.12
2018-03-11T07:17:54.825Z,97.28
2018-03-11T07:20:22.456Z,97.20
2018-03-11T07:22:50.005Z,97.18
2018-03-11T07:25:17.633Z,97.16
2018-03-11T07:27:45.215Z,97.25
2018-03-11T07:30:12.898Z,97.41
2018-03-11T07:32:40.772Z,97.44
2018-03-11T07:35:08.600Z,97.45
2018-03-11T07:37:36.198Z,97.46
2018-03-11T07:40:03.801Z,97.46
2018-03-11T07:42:31.436Z,97.41
2018-03-11T07:44:59.018Z,97.40
2018-03-11T07:47:26.606Z,97.35
2018-03-11T07:49:54.514Z,97.27
2018-03-11T07:52:22.086Z,97.22
2018-03-11T07:54:49.648Z,97.13
2018-03-11T07:57:17.494Z,97.00
2018-03-11T07:59:45.475Z,97.01
2018-03-11T08:02:13.302Z,96.96
2018-03-11T08:04:40.958Z,96.89
2018-03-11T08:07:09.670Z,96.84
2018-03-11T08:09:37.559Z,96.77
2018-03-11T08:12:05.252Z,96.61
2018-03-11T08:14:32.941Z,96.12
2018-03-11T08:17:00.564Z,95.87
2018-03-11T08:19:28.185Z,95.71
2018-03-11T08:21:55.946Z,95.48
2018-03-11T08:24:23.849Z,95.38
2018-03-11T08:26:51.425Z,95.31
2018-03-11T08:29:19.262Z,95.10
2018-03-11T08:31:46.906Z,94.90
2018-03-11T08:34:14.548Z,94.46
2018-03-11T08:36:42.196Z,94.18
2018-03-11T08:39:09.809Z,93.81
2018-03-11T08:41:37.380Z,93.54
2018-03-11T08:44:05.024Z,93.05
2018-03-11T08:46:32.604Z,92.90
2018-03-11T08:49:00.179Z,92.80
2018-03-11T08:51:27.783Z,92.69
2018-03-11T08:53:55.368Z,92.36
2018-03-11T08:56:23.292Z,92.48
2018-03-11T08:58:50.855Z,92.51
2018-03-11T09:01:18.449Z,92.27
2018-03-11T09:03:46.220Z,92.04
2018-03-11T09:06:14.183Z,91.72
2018-03-11T09:08:41.838Z,91.50
2018-03-11T09:11:09.444Z,91.14
2018-03-11T09:13:37.007Z,90.39
2018-03-11T09:16:04.651Z,90.03
2018-03-11T09:18:32.231Z,89.46
2018-03-11T09:20:59.820Z,88.52
2018-03-11T09:23:27.468Z,87.62
2018-03-11T09:25:55.088Z,87.38
2018-03-11T09:28:22.658Z,86.78
2018-03-11T09:30:50.275Z,86.50
2018-03-11T09:33:17.860Z,86.56
2018-03-11T09:35:48.573Z,86.70
2018-03-11T09:38:16.466Z,86.82
2018-03-11T09:40:44.090Z,86.45
2018-03-11T09:43:11.688Z,86.72
2018-03-11T09:45:39.351Z,86.65
2018-03-11T09:48:06.998Z,86.63
2018-03-11T09:50:34.586Z,86.49
2018-03-11T09:53:02.555Z,86.70
2018-03-11T09:55:30.125Z,86.14
2018-03-11T09:57:57.778Z,86.34
2018-03-11T10:00:25.408Z,86.20
2018-03-11T10:02:53.072Z,86.44
2018-03-11T10:05:20.643Z,86.58
2018-03-11T10:07:48.276Z,86.01
2018-03-11T10:10:16.180Z,86.25
2018-03-11T10:12:43.780Z,86.35
2018-03-11T10:15:11.392Z,86.35
2018-03-11T10:17:38.979Z,86.36
2018-03-11T10:20:06.560Z,86.38
2018-03-11T10:22:34.192Z,86.25
2018-03-11T10:25:01.785Z,86.34
2018-03-11T10:27:29.650Z,86.28
2018-03-11T10:29:57.225Z,86.06
2018-03-11T10:32:25.030Z,86.29
2018-03-11T10:34:52.645Z,86.51
2018-03-11T10:37:20.305Z,86.41
2018-03-11T10:39:47.884Z,85.94
2018-03-11T10:42:15.477Z,85.90
2018-03-11T10:44:43.128Z,85.77
2018-03-11T10:47:11.867Z,85.23
2018-03-11T10:49:39.703Z,85.36
2018-03-11T10:52:07.375Z,85.04
2018-03-11T10:54:35.198Z,84.93
2018-03-11T10:57:02.807Z,84.34
2018-03-11T10:59:30.456Z,84.20
2018-03-11T11:02:01.852Z,83.99
2018-03-11T11:04:34.398Z,84.28
2018-03-11T11:07:01.969Z,84.16
2018-03-11T11:09:29.680Z,83.96
2018-03-11T11:11:57.578Z,84.04
2018-03-11T11:14:25.162Z,84.08
2018-03-11T11:16:52.806Z,84.14
2018-03-11T11:19:20.411Z,83.97
2018-03-11T11:21:48.027Z,84.07
2018-03-11T11:24:15.676Z,84.19
2018-03-11T11:26:45.512Z,84.23
2018-03-11T11:29:13.080Z,84.20
2018-03-11T11:31:40.731Z,84.20
2018-03-11T11:34:08.344Z,84.11
2018-03-11T11:36:35.925Z,84.05
2018-03-11T11:39:03.853Z,84.06
2018-03-11T11:41:32.528Z,84.14
2018-03-11T11:44:00.171Z,84.21
2018-03-11T11:46:27.758Z,84.29
2018-03-11T11:48:55.572Z,84.37
2018-03-11T11:51:23.194Z,84.34
2018-03-11T11:53:51.102Z,84.16
2018-03-11T11:56:18.718Z,83.72
2018-03-11T11:58:46.306Z,83.69
2018-03-11T12:01:13.924Z,83.61
2018-03-11T12:03:41.525Z,83.62
2018-03-11T12:06:09.150Z,83.19
2018-03-11T12:08:36.780Z,82.90
2018-03-11T12:11:04.493Z,82.84
2018-03-11T12:13:32.143Z,82.39
2018-03-11T12:15:59.826Z,81.89
2018-03-11T12:18:27.468Z,81.91
2018-03-11T12:20:55.114Z,81.44
2018-03-11T12:23:22.720Z,81.48
2018-03-11T12:25:50.363Z,80.89
2018-03-11T12:28:18.389Z,80.54
2018-03-11T12:30:45.973Z,80.80
2018-03-11T12:33:13.571Z,80.60
2018-03-11T12:35:41.169Z,80.67
2018-03-11T12:38:08.797Z,80.65
2018-03-11T12:40:36.363Z,80.67
2018-03-11T12:43:03.933Z,80.75
2018-03-11T12:45:31.606Z,80.95
2018-03-11T12:47:59.200Z,80.72
2018-03-11T12:50:27.036Z,80.73
2018-03-11T12:52:54.647Z,80.40
2018-03-11T12:55:22.203Z,80.22
2018-03-11T12:57:49.785Z,80.58
2018-03-11T13:00:17.407Z,80.80
2018-03-11T13:02:45.351Z,81.31
2018-03-11T13:05:12.959Z,81.36
2018-03-11T13:07:40.555Z,81.37
2018-03-11T13:10:08.156Z,81.38
2018-03-11T13:12:35.828Z,81.18
2018-03-11T13:15:03.416Z,81.56
2018-03-11T13:17:31.008Z,82.08
2018-03-11T13:20:10.601Z,82.11
2018-03-11T13:22:38.530Z,82.60
2018-03-11T13:25:06.170Z,82.53
2018-03-11T13:27:34.163Z,82.67
2018-03-11T13:30:01.735Z,82.79
2018-03-11T13:32:41.200Z,82.45
2018-03-11T13:35:11.834Z,81.84
2018-03-11T13:37:39.447Z,81.92
2018-03-11T13:40:19.197Z,82.31
2018-03-11T13:42:49.393Z,82.42
2018-03-11T13:45:38.144Z,82.51
2018-03-11T13:48:05.718Z,82.50
2018-03-11T13:50:33.367Z,82.35
2018-03-11T13:53:12.642Z,82.64
2018-03-11T13:55:40.662Z,82.65
2018-03-11T13:58:25.645Z,82.36
2018-03-11T14:00:53.212Z,82.58
2018-03-11T14:03:20.790Z,82.22
2018-03-11T14:05:48.414Z,82.40
2018-03-11T14:08:16.002Z,82.67
2018-03-11T14:10:43.589Z,82.54
2018-03-11T14:13:11.200Z,82.36
2018-03-11T14:15:38.835Z,82.16
2018-03-11T14:18:06.429Z,81.04
2018-03-11T14:20:34.088Z,81.29
2018-03-11T14:23:01.662Z,81.36
2018-03-11T14:25:29.280Z,80.97
2018-03-11T14:27:56.955Z,80.62
2018-03-11T14:30:24.542Z,80.07
2018-03-11T14:32:52.187Z,79.80
2018-03-11T14:35:19.803Z,79.49
2018-03-11T14:37:47.388Z,79.54
2018-03-11T14:40:15.011Z,79.33
2018-03-11T14:42:42.652Z,78.99
2018-03-11T14:45:10.266Z,78.00
2018-03-11T14:47:37.863Z,77.81
2018-03-11T14:50:05.763Z,77.74
2018-03-11T14:52:33.385Z,78.35
2018-03-11T14:55:01.056Z,77.81
2018-03-11T14:57:28.651Z,78.16
2018-03-11T14:59:56.235Z,78.37
2018-03-11T15:02:23.868Z,78.84
2018-03-11T15:04:51.495Z,79.34
2018-03-11T15:07:19.505Z,78.46
2018-03-11T15:09:47.142Z,77.71
2018-03-11T15:12:14.737Z,77.95
2018-03-11T15:14:42.384Z,78.19
2018-03-11T15:17:10.001Z,78.05
2018-03-11T15:19:37.638Z,77.91
2018-03-11T15:22:05.429Z,78.26
2018-03-11T15:24:33.064Z,78.60
2018-03-11T15:27:00.696Z,78.64
2018-03-11T15:29:28.545Z,78.68
2018-03-11T15:31:56.164Z,78.52
2018-03-11T15:34:23.934Z,78.92
2018-03-11T15:36:51.603Z,78.99
2018-03-11T15:39:19.213Z,78.82
2018-03-11T15:41:46.819Z,78.91
2018-03-11T15:44:14.479Z,79.04
2018-03-11T15:46:42.056Z,79.02
2018-03-11T15:49:09.814Z,79.18
2018-03-11T15:51:37.440Z,79.46
2018-03-11T15:54:05.012Z,79.35
2018-03-11T15:56:32.583Z,78.97
2018-03-11T15:59:00.219Z,79.14
2018-03-11T16:01:27.794Z,79.07
2018-03-11T16:03:55.443Z,78.69
2018-03-11T16:06:23.003Z,79.05
2018-03-11T16:08:50.569Z,79.06
2018-03-11T16:11:18.589Z,79.10
2018-03-11T16:13:47.666Z,79.16
2018-03-11T16:16:15.262Z,79.24
2018-03-11T16:18:42.902Z,79.29
2018-03-11T16:21:10.605Z,79.26
2018-03-11T16:23:38.193Z,79.21
2018-03-11T16:26:05.792Z,79.29
2018-03-11T16:28:33.482Z,79.36
2018-03-11T16:31:01.032Z,79.29
2018-03-11T16:33:28.647Z,79.32
2018-03-11T16:35:56.579Z,79.21
2018-03-11T16:38:24.150Z,79.18
2018-03-11T16:40:51.791Z,79.29
2018-03-11T16:43:19.391Z,79.35
2018-03-11T16:45:47.026Z,79.44
2018-03-11T16:48:14.651Z,79.49
2018-03-11T16:50:42.215Z,79.58
2018-03-11T16:53:09.911Z,79.60
2018-03-11T16:55:37.497Z,79.68
2018-03-11T16:58:05.085Z,79.69
2018-03-11T17:00:32.697Z,79.81
2018-03-11T17:03:00.457Z,79.92
2018-03-11T17:05:28.053Z,79.97
2018-03-11T17:07:55.727Z,80.04
2018-03-11T17:10:23.401Z,80.12
2018-03-11T17:12:51.005Z,80.13
2018-03-11T17:15:18.594Z,80.31
2018-03-11T17:17:46.285Z,80.39
2018-03-11T17:20:13.923Z,80.36
2018-03-11T17:22:41.519Z,80.49
2018-03-11T17:25:09.168Z,80.56
2018-03-11T17:27:36.815Z,80.61
2018-03-11T17:30:04.433Z,80.76
2018-03-11T17:32:33.095Z,80.94
2018-03-11T17:35:00.758Z,81.14
2018-03-11T17:37:28.358Z,81.35
2018-03-11T17:39:56.185Z,81.28
2018-03-11T17:42:23.794Z,81.10
2018-03-11T17:44:51.598Z,80.98
2018-03-11T17:47:19.534Z,80.89
2018-03-11T17:49:47.129Z,80.87
2018-03-11T17:52:29.063Z,80.69
2018-03-11T17:54:56.675Z,80.54
2018-03-11T17:57:24.285Z,80.59
2018-03-11T17:59:51.908Z,80.54
2018-03-11T18:02:19.525Z,80.57
2018-03-11T18:04:47.310Z,80.67
2018-03-11T18:07:15.181Z,80.90
2018-03-11T18:09:42.981Z,81.04
2018-03-11T18:12:10.678Z,81.17
2018-03-11T18:14:38.288Z,81.42
2018-03-11T18:17:05.912Z,81.44
2018-03-11T18:19:33.487Z,81.32
2018-03-11T18:22:01.127Z,81.12
2018-03-11T18:24:28.995Z,81.13
2018-03-11T18:26:56.648Z,81.21
2018-03-11T18:29:24.222Z,81.35
2018-03-11T18:31:51.854Z,81.64
2018-03-11T18:34:19.730Z,82.05
2018-03-11T18:36:47.357Z,82.47
2018-03-11T18:39:14.946Z,82.97
2018-03-11T18:41:42.634Z,83.46
2018-03-11T18:44:10.189Z,83.74
2018-03-11T18:46:38.141Z,83.86
2018-03-11T18:49:05.718Z,83.97
2018-03-11T18:51:33.574Z,84.12
2018-03-11T18:54:01.205Z,84.20
2018-03-11T18:56:28.820Z,84.23
2018-03-11T18:58:56.476Z,84.26
2018-03-11T19:01:24.136Z,84.37
2018-03-11T19:03:52.092Z,84.58
2018-03-11T19:06:19.728Z,84.90
2018-03-11T19:08:47.400Z,85.07
2018-03-11T19:11:15.011Z,85.39
2018-03-11T19:13:42.621Z,85.95
2018-03-11T19:16:10.271Z,86.80
2018-03-11T19:18:37.888Z,86.81
2018-03-11T19:21:05.499Z,86.86
2018-03-11T19:23:33.116Z,87.26
2018-03-11T19:26:00.692Z,87.60
2018-03-11T19:28:28.321Z,87.81
2018-03-11T19:30:59.876Z,88.00
2018-03-11T19:33:27.489Z,87.97
2018-03-11T19:35:55.121Z,87.85
2018-03-11T19:38:22.747Z,87.64
2018-03-11T19:40:50.342Z,87.55
2018-03-11T19:43:17.943Z,87.49
2018-03-11T19:46:04.484Z,87.45
2018-03-11T19:48:32.344Z,87.41
2018-03-11T19:51:01.293Z,87.35
2018-03-11T19:53:29.789Z,87.31
2018-03-11T19:55:57.497Z,87.17
2018-03-11T19:58:25.123Z,87.06
2018-03-11T20:00:54.986Z,86.98
2018-03-11T20:03:22.944Z,86.90
2018-03-11T20:05:50.518Z,86.81
2018-03-11T20:08:18.107Z,86.68
2018-03-11T20:10:45.733Z,86.63
2018-03-11T20:13:13.371Z,86.67
2018-03-11T20:15:40.962Z,86.76
2018-03-11T20:18:08.891Z,86.83
2018-03-11T20:20:36.755Z,86.93
2018-03-11T20:23:04.342Z,86.98
2018-03-11T20:25:31.984Z,87.14
2018-03-11T20:28:01.465Z,87.41
2018-03-11T20:30:41.324Z,87.70
2018-03-11T20:33:08.996Z,87.83
2018-03-11T20:35:36.600Z,87.91
2018-03-11T20:38:04.273Z,88.01
2018-03-11T20:40:32.193Z,88.06
2018-03-11T20:42:59.868Z,88.11
2018-03-11T20:45:27.815Z,88.19
2018-03-11T20:47:55.446Z,88.22
2018-03-11T20:50:23.682Z,88.17
2018-03-11T20:52:51.795Z,88.20
2018-03-11T20:55:19.520Z,88.27
2018-03-11T20:57:47.137Z,88.38
2018-03-11T21:00:16.916Z,88.49
2018-03-11T21:02:44.751Z,88.44
2018-03-11T21:05:12.344Z,88.49
2018-03-11T21:07:39.977Z,88.58
2018-03-11T21:10:08.137Z,88.61
2018-03-11T21:12:35.814Z,88.63
2018-03-11T21:15:03.464Z,88.65
2018-03-11T21:17:31.269Z,88.62
2018-03-11T21:19:58.857Z,88.66
2018-03-11T21:22:26.489Z,88.68
2018-03-11T21:24:54.080Z,88.65
2018-03-11T21:27:21.675Z,88.58
2018-03-11T21:29:51.535Z,88.58
2018-03-11T21:32:19.327Z,88.59
2018-03-11T21:34:47.115Z,88.67
2018-03-11T21:37:14.760Z,88.74
2018-03-11T21:39:42.340Z,88.77
2018-03-11T21:42:10.094Z,88.83
2018-03-11T21:44:37.729Z,88.90
2018-03-11T21:47:05.325Z,89.04
2018-03-11T21:49:32.975Z,89.14
2018-03-11T21:52:00.618Z,89.18
2018-03-11T21:54:28.206Z,89.20
2018-03-11T21:56:55.770Z,89.27
2018-03-11T21:59:23.439Z,89.35
2018-03-11T22:01:51.042Z,89.44
2018-03-11T22:04:19.125Z,89.50
2018-03-11T22:06:46.791Z,89.57
2018-03-11T22:09:14.370Z,89.58
2018-03-11T22:11:42.004Z,89.65
2018-03-11T22:14:09.631Z,89.67
2018-03-11T22:16:37.203Z,89.75
2018-03-11T22:19:04.821Z,89.73
2018-03-11T22:21:32.417Z,89.72
2018-03-11T22:24:02.360Z,89.75
2018-03-11T22:26:32.044Z,89.79
2018-03-11T22:28:59.912Z,89.84
2018-03-11T22:31:28.400Z,89.90
2018-03-11T22:33:56.132Z,89.91
2018-03-11T22:36:24.041Z,89.86
2018-03-11T22:38:51.699Z,89.80
2018-03-11T22:41:19.276Z,89.75
2018-03-11T22:43:47.277Z,89.77
2018-03-11T22:46:15.143Z,89.87
2018-03-11T22:48:42.932Z,89.98
2018-03-11T22:51:10.706Z,90.11
2018-03-11T22:53:38.357Z,90.23
2018-03-11T22:56:06.046Z,90.26
2018-03-11T22:58:33.629Z,90.33
2018-03-11T23:01:01.338Z,90.40
2018-03-11T23:03:29.142Z,90.50
2018-03-11T23:05:57.030Z,90.53
2018-03-11T23:08:24.614Z,90.48
2018-03-11T23:10:52.224Z,90.42
2018-03-11T23:13:19.841Z,90.35
2018-03-11T23:15:47.420Z,90.31
2018-03-11T23:18:15.002Z,90.35
2018-03-11T23:20:42.576Z,90.42
2018-03-11T23:23:10.183Z,90.48
2018-03-11T23:25:37.823Z,90.53
2018-03-11T23:28:05.417Z,90.60
2018-03-11T23:30:33.029Z,90.65
2018-03-11T23:33:00.647Z,90.69
2018-03-11T23:35:28.221Z,90.76
2018-03-11T23:37:55.823Z,90.79
2018-03-11T23:40:23.465Z,90.78
2018-03-11T23:42:51.129Z,90.76
2018-03-11T23:45:18.727Z,90.78
2018-03-11T23:47:46.365Z,90.90
2018-03-11T23:50:14.008Z,90.95
2018-03-11T23:52:41.932Z,90.96
2018-03-11T23:55:09.560Z,90.98
2018-03-11T23:57:37.200Z,90.99
